createdAt,value
2022-08-08T00:00:53.016Z,9.280042
2022-08-08T00:01:09.928Z,9.279906
2022-08-08T00:02:31.274Z,9.279894
2022-08-08T00:03:20.165Z,9.279928
2022-08-08T00:04:09.812Z,9.279862
2022-08-08T00:05:10.113Z,9.279995
2022-08-08T00:06:08.724Z,9.280008
2022-08-08T00:07:12.600Z,9.280113
2022-08-08T00:08:08.708Z,9.280071
2022-08-08T00:09:08.689Z,9.280054
2022-08-08T00:10:10.735Z,9.279983
2022-08-08T00:11:13.206Z,9.279863
2022-08-08T00:12:10.670Z,9.280080
2022-08-08T00:13:10.284Z,9.279938
2022-08-08T00:14:17.572Z,9.279996
2022-08-08T00:15:09.535Z,9.279933
2022-08-08T00:16:08.511Z,9.279981
2022-08-08T00:17:23.005Z,9.279981
2022-08-08T00:18:09.493Z,9.280046
2022-08-08T00:19:08.448Z,9.279757
2022-08-08T00:20:08.427Z,9.279896
2022-08-08T00:21:09.408Z,9.279898
2022-08-08T00:22:10.581Z,9.279860
2022-08-08T00:23:08.433Z,9.279935
2022-08-08T00:24:08.343Z,9.279881
2022-08-08T00:25:08.529Z,9.279908
2022-08-08T00:26:08.301Z,9.280034
2022-08-08T00:27:08.286Z,9.280045
2022-08-08T00:28:34.546Z,9.279956
2022-08-08T00:29:09.242Z,9.280117
2022-08-08T00:30:11.240Z,9.280064
2022-08-08T00:32:16.410Z,9.280007
2022-08-08T00:32:20.809Z,9.279975
2022-08-08T00:33:09.181Z,9.280195
2022-08-08T00:34:18.659Z,9.280191
2022-08-08T00:35:09.114Z,9.280114
2022-08-08T00:36:09.784Z,9.280221
2022-08-08T00:37:44.983Z,9.280274
2022-08-08T00:38:31.640Z,9.280181
2022-08-08T00:41:07.442Z,9.280248
2022-08-08T00:41:12.220Z,9.280256
2022-08-08T00:41:14.750Z,9.280076
2022-08-08T00:42:13.337Z,9.279984
2022-08-08T00:43:19.369Z,9.280163
2022-08-08T00:44:08.937Z,9.280176
2022-08-08T00:45:21.412Z,9.280087
2022-08-08T00:46:16.552Z,9.279993
2022-08-08T00:47:14.125Z,9.280044
2022-08-08T00:48:29.120Z,9.279951
2022-08-08T00:49:22.377Z,9.280048
2022-08-08T00:50:09.241Z,9.280025
2022-08-08T00:51:07.785Z,9.280163
2022-08-08T00:52:07.767Z,9.280122
2022-08-08T00:53:15.722Z,9.280029
2022-08-08T00:54:15.757Z,9.280058
2022-08-08T00:55:08.829Z,9.280088
2022-08-08T00:56:11.252Z,9.280074
2022-08-08T00:57:08.660Z,9.280154
2022-08-08T00:58:12.402Z,9.280139
2022-08-08T00:59:08.618Z,9.280122
2022-08-08T01:00:07.600Z,9.280078
2022-08-08T01:01:07.639Z,9.279963
2022-08-08T01:03:16.171Z,9.279990
2022-08-08T01:03:58.585Z,9.280003
2022-08-08T01:04:08.945Z,9.279949
2022-08-08T01:05:07.491Z,9.279967
2022-08-08T01:06:07.926Z,9.280024
2022-08-08T01:07:07.451Z,9.280031
2022-08-08T01:08:07.453Z,9.280098
2022-08-08T01:09:35.138Z,9.280072
2022-08-08T01:10:08.385Z,9.280017
2022-08-08T01:11:08.029Z,9.280134
2022-08-08T01:12:07.344Z,9.280029
2022-08-08T01:13:07.349Z,9.280009
2022-08-08T01:14:08.544Z,9.280080
2022-08-08T01:15:08.283Z,9.280082
2022-08-08T01:16:07.261Z,9.280041
2022-08-08T01:17:07.238Z,9.279972
2022-08-08T01:18:07.245Z,9.280025
2022-08-08T01:19:13.642Z,9.280127
2022-08-08T01:20:08.175Z,9.280150
2022-08-08T01:21:08.178Z,9.280064
2022-08-08T01:22:13.559Z,9.280131
2022-08-08T01:23:08.134Z,9.280045
2022-08-08T01:24:13.818Z,9.280021
2022-08-08T01:25:09.065Z,9.280131
2022-08-08T01:26:11.399Z,9.280139
2022-08-08T01:27:10.598Z,9.280120
2022-08-08T01:28:07.027Z,9.280089
2022-08-08T01:29:06.977Z,9.280084
2022-08-08T01:30:06.957Z,9.280025
2022-08-08T01:31:23.694Z,9.280097
2022-08-08T01:32:17.153Z,9.280081
2022-08-08T01:33:23.452Z,9.280068
2022-08-08T01:34:07.871Z,9.279934
2022-08-08T01:35:11.422Z,9.280019
2022-08-08T01:36:07.833Z,9.280041
2022-08-08T01:37:06.810Z,9.280048
2022-08-08T01:38:07.818Z,9.280056
2022-08-08T01:39:06.818Z,9.279944
2022-08-08T01:40:06.780Z,9.279993
2022-08-08T01:41:09.884Z,9.280037
2022-08-08T01:42:08.232Z,9.279930
2022-08-08T01:43:06.710Z,9.279858
2022-08-08T01:44:06.662Z,9.280009
2022-08-08T01:45:06.646Z,9.280094
2022-08-08T01:46:07.619Z,9.280097
2022-08-08T01:48:07.144Z,9.280068
2022-08-08T01:48:16.918Z,9.280058
2022-08-08T01:49:11.018Z,9.280058
2022-08-08T01:50:07.853Z,9.280066
2022-08-08T01:51:48.645Z,9.279959
2022-08-08T01:53:04.226Z,9.279859
2022-08-08T01:55:16.028Z,9.279765
2022-08-08T01:55:25.755Z,9.279817
2022-08-08T01:55:27.014Z,9.279921
2022-08-08T01:56:28.839Z,9.279963
2022-08-08T01:57:07.397Z,9.280105
2022-08-08T01:58:11.886Z,9.279822
2022-08-08T01:59:07.819Z,9.279919
2022-08-08T02:00:06.799Z,9.279978
2022-08-08T02:01:08.968Z,9.279968
2022-08-08T02:02:08.294Z,9.280013
2022-08-08T02:03:07.168Z,9.280064
2022-08-08T02:04:06.273Z,9.280094
2022-08-08T02:05:06.226Z,9.280047
2022-08-08T02:06:06.205Z,9.280006
2022-08-08T02:07:06.191Z,9.279970
2022-08-08T02:08:06.884Z,9.279990
2022-08-08T02:09:17.664Z,9.279966
2022-08-08T02:10:11.658Z,9.279972
2022-08-08T02:11:07.102Z,9.279963
2022-08-08T02:12:07.081Z,9.279946
2022-08-08T02:13:07.085Z,9.280049
2022-08-08T02:14:06.041Z,9.280097
2022-08-08T02:15:11.281Z,9.280016
2022-08-08T02:16:07.003Z,9.279954
2022-08-08T02:17:10.448Z,9.279880
2022-08-08T02:18:10.501Z,9.279907
2022-08-08T02:19:10.094Z,9.279950
2022-08-08T02:20:09.500Z,9.279967
2022-08-08T02:21:08.105Z,9.279960
2022-08-08T02:22:05.873Z,9.279936
2022-08-08T02:23:05.879Z,9.279957
2022-08-08T02:24:05.833Z,9.279917
2022-08-08T02:25:07.294Z,9.279971
2022-08-08T02:26:06.788Z,9.279976
2022-08-08T02:27:05.771Z,9.279975
2022-08-08T02:28:05.774Z,9.279943
2022-08-08T02:29:05.726Z,9.279927
2022-08-08T02:30:05.702Z,9.279939
2022-08-08T02:31:19.625Z,9.279846
2022-08-08T02:32:06.665Z,9.279925
2022-08-08T02:33:05.670Z,9.279996
2022-08-08T02:34:09.109Z,9.280034
2022-08-08T02:35:08.527Z,9.279970
2022-08-08T02:36:06.586Z,9.279984
2022-08-08T02:37:10.047Z,9.279959
2022-08-08T02:38:09.070Z,9.279974
2022-08-08T02:39:40.612Z,9.279912
2022-08-08T02:40:06.590Z,9.279935
2022-08-08T02:41:18.022Z,9.279937
2022-08-08T02:42:07.961Z,9.279998
2022-08-08T02:44:38.507Z,9.279909
2022-08-08T02:44:43.051Z,9.279943
2022-08-08T02:45:09.787Z,9.279913
2022-08-08T02:46:08.105Z,9.279909
2022-08-08T02:47:05.369Z,9.279932
2022-08-08T02:48:05.382Z,9.279980
2022-08-08T02:49:05.334Z,9.279980
2022-08-08T02:50:05.314Z,9.280005
2022-08-08T02:51:05.318Z,9.280062
2022-08-08T02:52:32.401Z,9.280053
2022-08-08T02:53:07.282Z,9.280011
2022-08-08T02:54:05.228Z,9.280012
2022-08-08T02:55:05.208Z,9.280009
2022-08-08T02:56:06.186Z,9.279996
2022-08-08T02:57:05.207Z,9.279987
2022-08-08T02:58:06.177Z,9.280028
2022-08-08T02:59:05.979Z,9.280017
2022-08-08T03:00:26.622Z,9.279972
2022-08-08T03:01:14.768Z,9.279965
2022-08-08T03:02:06.116Z,9.279918
2022-08-08T03:03:05.054Z,9.279924
2022-08-08T03:05:05.089Z,9.280014
2022-08-08T03:05:09.325Z,9.280008
2022-08-08T03:06:07.275Z,9.279914
2022-08-08T03:07:07.175Z,9.280067
2022-08-08T03:08:04.986Z,9.280045
2022-08-08T03:09:04.929Z,9.280017
2022-08-08T03:10:04.908Z,9.280046
2022-08-08T03:11:05.104Z,9.279944
2022-08-08T03:12:05.983Z,9.280026
2022-08-08T03:13:07.350Z,9.279935
2022-08-08T03:15:59.703Z,9.280079
2022-08-08T03:16:01.148Z,9.280073
2022-08-08T03:16:06.519Z,9.280099
2022-08-08T03:17:05.763Z,9.280059
2022-08-08T03:18:06.862Z,9.279943
2022-08-08T03:19:04.727Z,9.279974
2022-08-08T03:20:04.701Z,9.280029
2022-08-08T03:21:09.719Z,9.280000
2022-08-08T03:22:05.666Z,9.280057
2022-08-08T03:23:05.670Z,9.280046
2022-08-08T03:24:04.625Z,9.280062
2022-08-08T03:25:04.633Z,9.280060
2022-08-08T03:26:05.580Z,9.280037
2022-08-08T03:27:04.561Z,9.280146
2022-08-08T03:28:04.544Z,9.280154
2022-08-08T03:29:04.544Z,9.280107
2022-08-08T03:30:05.502Z,9.280148
2022-08-08T03:31:13.583Z,9.280302
2022-08-08T03:32:08.411Z,9.280148
2022-08-08T03:33:07.794Z,9.280139
2022-08-08T03:34:06.424Z,9.279999
2022-08-08T03:35:05.406Z,9.279927
2022-08-08T03:36:04.386Z,9.279957
2022-08-08T03:37:19.891Z,9.279947
2022-08-08T03:38:56.269Z,9.279950
2022-08-08T03:39:14.791Z,9.280016
2022-08-08T03:40:05.373Z,9.279922
2022-08-08T03:41:22.927Z,9.279948
2022-08-08T03:42:26.542Z,9.279900
2022-08-08T03:43:16.582Z,9.279885
2022-08-08T03:44:05.227Z,9.279863
2022-08-08T03:46:06.368Z,9.279907
2022-08-08T03:46:09.177Z,9.280000
2022-08-08T03:47:14.037Z,9.279916
2022-08-08T03:48:05.175Z,9.279950
2022-08-08T03:49:28.022Z,9.279968
2022-08-08T03:50:05.112Z,9.279882
2022-08-08T03:51:05.087Z,9.279869
2022-08-08T03:52:04.203Z,9.279792
2022-08-08T03:53:04.072Z,9.279795
2022-08-08T03:54:04.027Z,9.279820
2022-08-08T03:55:20.149Z,9.279891
2022-08-08T03:56:04.985Z,9.279909
2022-08-08T03:58:30.317Z,9.279915
2022-08-08T03:58:31.631Z,9.279966
2022-08-08T03:59:04.922Z,9.279872
2022-08-08T04:00:11.350Z,9.279922
2022-08-08T04:01:23.372Z,9.279863
2022-08-08T04:02:22.882Z,9.279831
2022-08-08T04:03:11.088Z,9.279820
2022-08-08T04:04:04.876Z,9.279821
2022-08-08T04:05:03.808Z,9.279859
2022-08-08T04:06:05.789Z,9.279906
2022-08-08T04:07:03.765Z,9.279852
2022-08-08T04:08:03.774Z,9.279852
2022-08-08T04:09:11.067Z,9.279907
2022-08-08T04:10:05.712Z,9.279953
2022-08-08T04:11:11.014Z,9.279938
2022-08-08T04:12:04.665Z,9.279886
2022-08-08T04:13:17.359Z,9.279834
2022-08-08T04:14:34.024Z,9.279880
2022-08-08T04:15:04.638Z,9.279865
2022-08-08T04:16:05.719Z,9.279902
2022-08-08T04:17:04.241Z,9.279857
2022-08-08T04:18:03.543Z,9.279911
2022-08-08T04:19:03.524Z,9.279955
2022-08-08T04:20:04.648Z,9.279895
2022-08-08T04:21:06.345Z,9.279880
2022-08-08T04:22:03.460Z,9.279942
2022-08-08T04:23:07.138Z,9.279900
2022-08-08T04:24:11.560Z,9.279848
2022-08-08T04:25:04.424Z,9.279941
2022-08-08T04:26:09.077Z,9.279954
2022-08-08T04:27:07.476Z,9.279955
2022-08-08T04:28:35.782Z,9.279902
2022-08-08T04:29:05.313Z,9.279893
2022-08-08T04:30:17.908Z,9.279878
2022-08-08T04:31:06.069Z,9.279915
2022-08-08T04:32:03.250Z,9.279910
2022-08-08T04:33:03.227Z,9.279822
2022-08-08T04:34:03.234Z,9.279856
2022-08-08T04:35:03.183Z,9.279917
2022-08-08T04:36:03.164Z,9.279928
2022-08-08T04:37:04.212Z,9.279945
2022-08-08T04:38:03.124Z,9.279945
2022-08-08T04:40:05.869Z,9.279899
2022-08-08T04:40:10.728Z,9.279841
2022-08-08T04:41:04.165Z,9.279913
2022-08-08T04:42:03.051Z,9.279939
2022-08-08T04:43:03.036Z,9.279922
2022-08-08T04:44:03.036Z,9.279947
2022-08-08T04:45:02.992Z,9.279900
2022-08-08T04:46:02.972Z,9.279885
2022-08-08T04:47:02.953Z,9.279960
2022-08-08T04:48:02.938Z,9.279991
2022-08-08T04:49:02.944Z,9.279959
2022-08-08T04:50:05.033Z,9.279931
2022-08-08T04:51:02.884Z,9.279937
2022-08-08T04:52:04.143Z,9.279939
2022-08-08T04:53:13.705Z,9.279928
2022-08-08T04:54:40.170Z,9.279942
2022-08-08T04:55:04.341Z,9.279910
2022-08-08T04:56:02.787Z,9.279931
2022-08-08T04:57:02.777Z,9.279937
2022-08-08T04:58:02.752Z,9.279932
2022-08-08T04:59:02.764Z,9.279946
2022-08-08T05:00:02.715Z,9.280005
2022-08-08T05:01:05.920Z,9.280034
2022-08-08T05:02:03.734Z,9.280034
2022-08-08T05:03:02.663Z,9.279968
2022-08-08T05:04:11.480Z,9.279955
2022-08-08T05:05:03.628Z,9.280024
2022-08-08T05:06:12.556Z,9.279938
2022-08-08T05:07:03.595Z,9.279962
2022-08-08T05:08:02.752Z,9.279965
2022-08-08T05:09:05.946Z,9.279991
2022-08-08T05:10:02.546Z,9.279905
2022-08-08T05:11:02.526Z,9.279882
2022-08-08T05:12:02.513Z,9.279878
2022-08-08T05:13:02.606Z,9.279865
2022-08-08T05:14:02.508Z,9.279840
2022-08-08T05:15:03.044Z,9.279936
2022-08-08T05:16:52.889Z,9.280059
2022-08-08T05:17:09.026Z,9.279912
2022-08-08T05:18:03.406Z,9.279768
2022-08-08T05:19:02.411Z,9.279882
2022-08-08T05:20:12.537Z,9.279958
2022-08-08T05:21:05.796Z,9.279932
2022-08-08T05:22:02.334Z,9.279924
2022-08-08T05:23:02.313Z,9.279948
2022-08-08T05:24:02.326Z,9.279928
2022-08-08T05:25:03.285Z,9.279879
2022-08-08T05:26:02.268Z,9.279889
2022-08-08T05:27:02.284Z,9.279932
2022-08-08T05:28:02.240Z,9.279996
2022-08-08T05:29:06.258Z,9.280005
2022-08-08T05:30:02.195Z,9.280037
2022-08-08T05:31:08.718Z,9.279952
2022-08-08T05:32:06.195Z,9.279969
2022-08-08T05:33:03.266Z,9.279891
2022-08-08T05:34:02.153Z,9.279933
2022-08-08T05:35:05.282Z,9.279962
2022-08-08T05:36:02.088Z,9.279950
2022-08-08T05:37:02.073Z,9.279940
2022-08-08T05:38:03.060Z,9.279892
2022-08-08T05:39:02.096Z,9.280097
2022-08-08T05:40:02.026Z,9.280008
2022-08-08T05:41:02.005Z,9.279881
2022-08-08T05:42:01.995Z,9.279927
2022-08-08T05:43:01.975Z,9.279894
2022-08-08T05:44:03.635Z,9.279956
2022-08-08T05:45:10.459Z,9.279936
2022-08-08T05:46:04.133Z,9.279882
2022-08-08T05:47:04.872Z,9.279941
2022-08-08T05:48:08.934Z,9.280027
2022-08-08T05:49:05.401Z,9.279986
2022-08-08T05:50:02.860Z,9.280005
2022-08-08T05:51:15.003Z,9.280041
2022-08-08T05:52:02.821Z,9.280046
2022-08-08T05:53:54.641Z,9.279970
2022-08-08T05:54:42.566Z,9.280073
2022-08-08T05:55:07.525Z,9.279971
2022-08-08T05:56:07.802Z,9.279984
2022-08-08T05:57:04.743Z,9.279971
2022-08-08T05:58:04.842Z,9.279985
2022-08-08T05:59:03.795Z,9.279966
2022-08-08T06:00:22.558Z,9.279989
2022-08-08T06:01:04.987Z,9.279954
2022-08-08T06:02:01.658Z,9.279887
2022-08-08T06:03:01.636Z,9.279876
2022-08-08T06:04:04.903Z,9.279875
2022-08-08T06:05:06.797Z,9.279926
2022-08-08T06:06:05.081Z,9.280025
2022-08-08T06:07:01.825Z,9.279963
2022-08-08T06:08:02.312Z,9.279932
2022-08-08T06:09:58.971Z,9.279998
2022-08-08T06:10:02.639Z,9.279987
2022-08-08T06:11:02.511Z,9.279836
2022-08-08T06:12:01.494Z,9.280064
2022-08-08T06:13:01.605Z,9.279927
2022-08-08T06:14:01.492Z,9.280114
2022-08-08T06:15:03.185Z,9.280033
2022-08-08T06:16:01.430Z,9.279920
2022-08-08T06:17:01.418Z,9.279945
2022-08-08T06:18:20.249Z,9.279981
2022-08-08T06:19:04.078Z,9.280007
2022-08-08T06:20:01.366Z,9.279971
2022-08-08T06:21:03.756Z,9.279921
2022-08-08T06:22:32.255Z,9.279916
2022-08-08T06:23:02.457Z,9.279846
2022-08-08T06:24:03.464Z,9.279978
2022-08-08T06:25:01.281Z,9.279921
2022-08-08T06:26:44.765Z,9.279925
2022-08-08T06:27:02.470Z,9.279886
2022-08-08T06:28:01.233Z,9.279767
2022-08-08T06:29:02.238Z,9.279902
2022-08-08T06:30:02.226Z,9.279916
2022-08-08T06:31:02.186Z,9.279894
2022-08-08T06:32:09.772Z,9.279689
2022-08-08T06:33:02.353Z,9.279696
2022-08-08T06:34:26.281Z,9.279814
2022-08-08T06:35:57.144Z,9.279757
2022-08-08T06:36:08.418Z,9.279898
2022-08-08T06:37:02.089Z,9.279912
2022-08-08T06:38:02.085Z,9.279930
2022-08-08T06:39:01.139Z,9.279820
2022-08-08T06:40:02.097Z,9.279925
2022-08-08T06:41:01.034Z,9.279968
2022-08-08T06:42:02.616Z,9.279946
2022-08-08T06:43:00.995Z,9.279760
2022-08-08T06:44:01.008Z,9.279825
2022-08-08T06:45:00.964Z,9.279877
2022-08-08T06:46:00.948Z,9.279975
2022-08-08T06:47:01.715Z,9.279896
2022-08-08T06:48:04.192Z,9.279879
2022-08-08T06:49:00.941Z,9.279833
2022-08-08T06:50:00.890Z,9.279935
2022-08-08T06:51:04.311Z,9.279942
2022-08-08T06:52:02.858Z,9.279893
2022-08-08T06:53:00.849Z,9.279944
2022-08-08T06:54:01.854Z,9.279887
2022-08-08T06:55:00.811Z,9.279925
2022-08-08T06:56:02.938Z,9.279829
2022-08-08T06:57:00.785Z,9.279790
2022-08-08T06:58:04.113Z,9.279856
2022-08-08T06:59:01.775Z,9.279828
2022-08-08T07:00:11.404Z,9.279864
2022-08-08T07:01:01.718Z,9.279978
2022-08-08T07:02:26.531Z,9.279900
2022-08-08T07:03:01.702Z,9.279922
2022-08-08T07:04:35.460Z,9.279925
2022-08-08T07:05:01.751Z,9.279895
2022-08-08T07:06:01.634Z,9.279823
2022-08-08T07:07:00.623Z,9.279872
2022-08-08T07:08:01.642Z,9.279848
2022-08-08T07:09:01.159Z,9.279780
2022-08-08T07:10:00.976Z,9.279847
2022-08-08T07:11:01.562Z,9.279851
2022-08-08T07:12:00.545Z,9.279883
2022-08-08T07:13:00.532Z,9.279816
2022-08-08T07:14:01.717Z,9.279862
2022-08-08T07:15:00.879Z,9.279853
2022-08-08T07:16:07.093Z,9.279876
2022-08-08T07:17:01.467Z,9.279942
2022-08-08T07:18:01.610Z,9.279860
2022-08-08T07:19:01.437Z,9.279770
2022-08-08T07:20:00.456Z,9.279778
2022-08-08T07:21:01.902Z,9.279821
2022-08-08T07:22:05.150Z,9.279806
2022-08-08T07:23:02.395Z,9.279845
2022-08-08T07:24:03.361Z,9.279778
2022-08-08T07:25:00.338Z,9.279836
2022-08-08T07:26:00.323Z,9.279879
2022-08-08T07:27:00.313Z,9.279862
2022-08-08T07:28:02.589Z,9.279888
2022-08-08T07:29:05.802Z,9.279929
2022-08-08T07:30:06.950Z,9.279908
2022-08-08T07:31:02.257Z,9.279883
2022-08-08T07:32:00.231Z,9.279861
2022-08-08T07:33:01.108Z,9.279786
2022-08-08T07:34:00.232Z,9.279887
2022-08-08T07:35:02.758Z,9.279870
2022-08-08T07:36:00.172Z,9.279728
2022-08-08T07:37:00.157Z,9.279663
2022-08-08T07:38:10.221Z,9.279762
2022-08-08T07:39:01.656Z,9.279809
2022-08-08T07:40:01.849Z,9.279848
2022-08-08T07:41:04.185Z,9.279834
2022-08-08T07:42:04.233Z,9.279876
2022-08-08T07:43:01.063Z,9.279901
2022-08-08T07:44:00.102Z,9.279864
2022-08-08T07:45:00.034Z,9.279859
2022-08-08T07:46:17.918Z,9.279872
2022-08-08T07:47:01.006Z,9.279853
2022-08-08T07:47:59.992Z,9.279862
2022-08-08T07:49:00.004Z,9.279951
2022-08-08T07:49:59.961Z,9.279904
2022-08-08T07:50:59.948Z,9.279877
2022-08-08T07:51:59.931Z,9.279887
2022-08-08T07:52:59.911Z,9.280001
2022-08-08T07:54:02.864Z,9.279883
2022-08-08T07:54:59.881Z,9.279907
2022-08-08T07:55:59.869Z,9.279887
2022-08-08T07:56:59.856Z,9.279869
2022-08-08T07:57:59.837Z,9.279953
2022-08-08T07:58:59.850Z,9.279912
2022-08-08T07:59:59.810Z,9.279957
2022-08-08T08:01:00.019Z,9.279921
2022-08-08T08:02:35.490Z,9.279932
2022-08-08T08:03:00.756Z,9.279826
2022-08-08T08:03:59.829Z,9.279885
2022-08-08T08:04:59.731Z,9.279879
2022-08-08T08:05:59.714Z,9.279958
2022-08-08T08:06:59.693Z,9.279978
2022-08-08T08:07:59.684Z,9.279924
2022-08-08T08:08:59.694Z,9.279937
2022-08-08T08:09:59.651Z,9.279955
2022-08-08T08:10:59.635Z,9.279902
2022-08-08T08:11:59.625Z,9.279871
2022-08-08T08:12:59.604Z,9.279924
2022-08-08T08:14:08.110Z,9.279881
2022-08-08T08:15:04.210Z,9.279925
2022-08-08T08:15:59.558Z,9.279906
2022-08-08T08:16:59.542Z,9.279981
2022-08-08T08:17:59.530Z,9.279974
2022-08-08T08:18:59.537Z,9.279939
2022-08-08T08:19:59.501Z,9.279922
2022-08-08T08:20:59.485Z,9.279998
2022-08-08T08:22:00.766Z,9.280051
2022-08-08T08:22:59.452Z,9.279968
2022-08-08T08:24:02.885Z,9.279913
2022-08-08T08:24:59.417Z,9.279919
2022-08-08T08:26:00.402Z,9.279900
2022-08-08T08:26:59.419Z,9.279911
2022-08-08T08:27:59.368Z,9.279937
2022-08-08T08:28:59.381Z,9.279881
2022-08-08T08:29:59.336Z,9.279907
2022-08-08T08:30:59.325Z,9.279963
2022-08-08T08:32:05.728Z,9.279962
2022-08-08T08:33:00.293Z,9.279954
2022-08-08T08:33:59.306Z,9.279990
2022-08-08T08:34:59.261Z,9.279946
2022-08-08T08:36:19.150Z,9.279919
2022-08-08T08:37:00.236Z,9.279895
2022-08-08T08:38:15.702Z,9.279955
2022-08-08T08:39:01.240Z,9.279920
2022-08-08T08:40:02.859Z,9.279982
2022-08-08T08:40:59.168Z,9.280005
2022-08-08T08:41:59.152Z,9.280029
2022-08-08T08:42:59.136Z,9.279939
2022-08-08T08:44:13.488Z,9.279918
2022-08-08T08:45:00.109Z,9.279933
2022-08-08T08:46:03.433Z,9.279953
2022-08-08T08:47:00.084Z,9.279825
2022-08-08T08:48:01.033Z,9.279813
2022-08-08T08:48:59.073Z,9.279936
2022-08-08T08:49:59.028Z,9.279937
2022-08-08T08:50:59.011Z,9.279893
2022-08-08T08:51:58.994Z,9.279863
2022-08-08T08:53:00.123Z,9.279882
2022-08-08T08:54:00.826Z,9.279873
2022-08-08T08:54:58.947Z,9.279978
2022-08-08T08:56:01.327Z,9.279980
2022-08-08T08:56:58.912Z,9.279994
2022-08-08T08:57:58.904Z,9.279914
2022-08-08T08:58:58.911Z,9.279893
2022-08-08T09:00:04.640Z,9.280005
2022-08-08T09:01:08.389Z,9.279829
2022-08-08T09:02:00.891Z,9.279871
2022-08-08T09:02:58.819Z,9.279910
2022-08-08T09:03:58.831Z,9.279912
2022-08-08T09:04:58.781Z,9.279905
2022-08-08T09:05:58.766Z,9.279963
2022-08-08T09:06:58.750Z,9.279839
2022-08-08T09:08:12.730Z,9.279943
2022-08-08T09:08:59.740Z,9.279772
2022-08-08T09:09:58.700Z,9.279674
2022-08-08T09:10:58.678Z,9.279821
2022-08-08T09:12:01.457Z,9.279874
2022-08-08T09:12:58.649Z,9.279999
2022-08-08T09:13:58.654Z,9.279900
2022-08-08T09:14:58.612Z,9.279948
2022-08-08T09:16:03.737Z,9.280007
2022-08-08T09:16:59.572Z,9.279957
2022-08-08T09:17:58.805Z,9.279992
2022-08-08T09:18:58.566Z,9.279899
2022-08-08T09:21:56.138Z,9.279832
2022-08-08T09:21:59.247Z,9.279927
2022-08-08T09:22:06.257Z,9.279851
2022-08-08T09:23:00.481Z,9.279855
2022-08-08T09:23:58.482Z,9.279816
2022-08-08T09:24:58.738Z,9.279873
2022-08-08T09:26:02.255Z,9.279853
2022-08-08T09:26:58.405Z,9.279912
2022-08-08T09:27:58.671Z,9.279783
2022-08-08T09:28:59.400Z,9.279857
2022-08-08T09:29:58.356Z,9.279862
2022-08-08T09:30:58.339Z,9.279874
2022-08-08T09:31:58.328Z,9.279798
2022-08-08T09:33:55.475Z,9.279956
2022-08-08T09:34:31.012Z,9.279903
2022-08-08T09:34:59.272Z,9.279838
2022-08-08T09:35:58.256Z,9.279840
2022-08-08T09:37:57.082Z,9.279875
2022-08-08T09:38:02.102Z,9.279981
2022-08-08T09:38:59.233Z,9.279900
2022-08-08T09:39:58.204Z,9.279942
2022-08-08T09:40:58.168Z,9.279986
2022-08-08T09:42:21.332Z,9.279859
2022-08-08T09:42:59.133Z,9.279935
2022-08-08T09:44:04.977Z,9.279930
2022-08-08T09:45:03.612Z,9.280011
2022-08-08T09:46:02.981Z,9.279930
2022-08-08T09:47:05.161Z,9.279853
2022-08-08T09:48:04.332Z,9.279980
2022-08-08T09:49:18.661Z,9.279818
2022-08-08T09:50:01.469Z,9.280140
2022-08-08T09:51:00.000Z,9.280143
2022-08-08T09:52:06.861Z,9.280093
2022-08-08T09:53:01.341Z,9.279948
2022-08-08T09:54:09.304Z,9.279902
2022-08-08T09:54:59.957Z,9.279977
2022-08-08T09:56:05.776Z,9.279987
2022-08-08T09:56:58.900Z,9.279938
2022-08-08T09:57:57.903Z,9.279852
2022-08-08T09:58:58.008Z,9.279886
2022-08-08T10:00:59.826Z,9.280015
2022-08-08T10:02:00.202Z,9.279972
2022-08-08T10:02:58.792Z,9.279930
2022-08-08T10:03:57.771Z,9.280022
2022-08-08T10:04:57.806Z,9.280064
2022-08-08T10:05:57.797Z,9.280025
2022-08-08T10:06:57.719Z,9.280085
2022-08-08T10:08:00.562Z,9.280028
2022-08-08T10:08:57.682Z,9.280059
2022-08-08T10:10:00.066Z,9.280006
2022-08-08T10:10:57.734Z,9.280034
2022-08-08T10:12:28.273Z,9.280029
2022-08-08T10:13:00.510Z,9.280019
2022-08-08T10:13:58.593Z,9.280023
2022-08-08T10:14:57.602Z,9.279972
2022-08-08T10:16:00.975Z,9.279985
2022-08-08T10:16:58.406Z,9.280000
2022-08-08T10:18:11.795Z,9.280059
2022-08-08T10:18:59.505Z,9.280046
2022-08-08T10:19:58.601Z,9.280030
2022-08-08T10:21:00.583Z,9.280088
2022-08-08T10:21:57.458Z,9.280084
2022-08-08T10:22:57.436Z,9.280082
2022-08-08T10:23:59.221Z,9.280064
2022-08-08T10:24:57.426Z,9.280036
2022-08-08T10:25:57.703Z,9.280065
2022-08-08T10:26:59.782Z,9.279974
2022-08-08T10:27:57.846Z,9.279922
2022-08-08T10:28:57.332Z,9.279941
2022-08-08T10:29:59.536Z,9.279914
2022-08-08T10:31:01.029Z,9.279919
2022-08-08T10:31:57.270Z,9.280001
2022-08-08T10:32:57.262Z,9.280004
2022-08-08T10:34:19.372Z,9.280051
2022-08-08T10:35:01.483Z,9.279958
2022-08-08T10:36:12.517Z,9.279935
2022-08-08T10:36:59.735Z,9.279913
2022-08-08T10:37:57.173Z,9.279916
2022-08-08T10:38:57.151Z,9.279908
2022-08-08T10:39:57.175Z,9.279812
2022-08-08T10:40:57.117Z,9.279898
2022-08-08T10:42:15.045Z,9.279904
2022-08-08T10:42:58.081Z,9.279929
2022-08-08T10:43:57.060Z,9.279889
2022-08-08T10:44:57.070Z,9.279962
2022-08-08T10:45:58.776Z,9.280005
2022-08-08T10:46:58.010Z,9.280008
2022-08-08T10:47:56.988Z,9.279938
2022-08-08T10:48:59.136Z,9.279984
2022-08-08T10:50:01.580Z,9.279978
2022-08-08T10:50:56.935Z,9.279986
2022-08-08T10:51:56.919Z,9.279995
2022-08-08T10:52:56.902Z,9.279959
2022-08-08T10:53:59.541Z,9.279880
2022-08-08T10:54:56.894Z,9.279935
2022-08-08T10:55:56.845Z,9.279903
2022-08-08T10:56:56.827Z,9.279858
2022-08-08T10:57:56.808Z,9.279831
2022-08-08T10:58:56.787Z,9.279926
2022-08-08T10:59:56.797Z,9.279893
2022-08-08T11:01:05.029Z,9.279839
2022-08-08T11:01:57.797Z,9.279740
2022-08-08T11:02:56.716Z,9.279730
2022-08-08T11:04:01.893Z,9.279783
2022-08-08T11:04:58.710Z,9.279843
2022-08-08T11:06:00.687Z,9.279930
2022-08-08T11:06:56.647Z,9.279996
2022-08-08T11:08:37.793Z,9.279906
2022-08-08T11:08:57.615Z,9.280001
2022-08-08T11:09:56.621Z,9.280124
2022-08-08T11:10:56.578Z,9.280156
2022-08-08T11:12:04.625Z,9.279919
2022-08-08T11:13:18.653Z,9.279909
2022-08-08T11:14:00.083Z,9.280059
2022-08-08T11:14:56.532Z,9.280134
2022-08-08T11:16:00.687Z,9.279971
2022-08-08T11:16:57.466Z,9.279973
2022-08-08T11:17:59.791Z,9.279884
2022-08-08T11:18:57.435Z,9.279797
2022-08-08T11:19:56.445Z,9.279855
2022-08-08T11:20:57.513Z,9.279898
2022-08-08T11:21:56.511Z,9.279918
2022-08-08T11:22:57.367Z,9.279794
2022-08-08T11:24:01.579Z,9.279867
2022-08-08T11:24:57.358Z,9.279840
2022-08-08T11:25:57.150Z,9.279870
2022-08-08T11:26:57.383Z,9.279834
2022-08-08T11:27:56.274Z,9.279881
2022-08-08T11:28:56.261Z,9.279891
2022-08-08T11:30:20.585Z,9.279958
2022-08-08T11:30:57.224Z,9.280052
2022-08-08T11:31:56.203Z,9.279943
2022-08-08T11:32:56.186Z,9.280060
2022-08-08T11:34:01.906Z,9.279990
2022-08-08T11:35:24.983Z,9.279947
2022-08-08T11:35:58.146Z,9.279881
2022-08-08T11:36:58.722Z,9.279887
2022-08-08T11:38:36.202Z,9.279856
2022-08-08T11:38:57.124Z,9.279900
2022-08-08T11:39:57.153Z,9.279990
2022-08-08T11:40:56.053Z,9.279984
2022-08-08T11:41:56.034Z,9.279882
2022-08-08T11:42:56.017Z,9.279787
2022-08-08T11:43:58.121Z,9.279905
2022-08-08T11:44:56.008Z,9.279844